sensor_id;sensor_type;location;lat;lon;timestamp;pressure;altitude;pressure_sealevel;temperature;humidity
3132;BME280;62090;52.330;9.104;2022-08-01T00:01:17;100823.56;;;22.25;93.89
3132;BME280;62090;52.330;9.104;2022-08-01T00:03:48;100787.69;;;22.04;94.34
3132;BME280;62090;52.330;9.104;2022-08-01T00:06:18;100818.53;;;22.16;94.88
3132;BME280;62090;52.330;9.104;2022-08-01T00:08:50;100816.69;;;22.21;95.27
3132;BME280;62090;52.330;9.104;2022-08-01T00:11:20;100819.59;;;22.09;94.80
3132;BME280;62090;52.330;9.104;2022-08-01T00:13:49;100774.25;;;21.83;95.45
3132;BME280;62090;52.330;9.104;2022-08-01T00:16:22;100796.41;;;22.00;94.66
3132;BME280;62090;52.330;9.104;2022-08-01T00:18:52;100811.78;;;22.09;94.90
3132;BME280;62090;52.330;9.104;2022-08-01T00:21:22;100792.06;;;22.00;94.03
3132;BME280;62090;52.330;9.104;2022-08-01T00:23:51;100814.28;;;22.13;93.71
3132;BME280;62090;52.330;9.104;2022-08-01T00:26:21;100818.69;;;22.10;94.24
3132;BME280;62090;52.330;9.104;2022-08-01T00:28:51;100812.78;;;22.03;95.03
3132;BME280;62090;52.330;9.104;2022-08-01T00:31:23;100824.03;;;22.04;95.06
3132;BME280;62090;52.330;9.104;2022-08-01T00:33:53;100809.53;;;21.92;95.47
3132;BME280;62090;52.330;9.104;2022-08-01T00:36:23;100823.88;;;22.10;94.91
3132;BME280;62090;52.330;9.104;2022-08-01T00:38:52;100815.38;;;22.03;94.98
3132;BME280;62090;52.330;9.104;2022-08-01T00:41:22;100818.81;;;22.04;95.47
3132;BME280;62090;52.330;9.104;2022-08-01T00:43:52;100826.75;;;21.98;94.89
3132;BME280;62090;52.330;9.104;2022-08-01T00:46:24;100817.97;;;22.03;95.45
3132;BME280;62090;52.330;9.104;2022-08-01T00:48:54;100823.22;;;22.00;94.88
3132;BME280;62090;52.330;9.104;2022-08-01T00:51:24;100818.94;;;21.98;95.33
3132;BME280;62090;52.330;9.104;2022-08-01T00:53:55;100828.53;;;21.92;94.92
3132;BME280;62090;52.330;9.104;2022-08-01T00:56:26;100828.53;;;21.92;95.42
3132;BME280;62090;52.330;9.104;2022-08-01T00:58:58;100808.00;;;21.83;95.37
3132;BME280;62090;52.330;9.104;2022-08-01T01:01:30;100839.50;;;22.07;94.67
3132;BME280;62090;52.330;9.104;2022-08-01T01:04:05;100831.06;;;21.99;94.74
3132;BME280;62090;52.330;9.104;2022-08-01T01:06:44;100819.00;;;21.95;94.82
3132;BME280;62090;52.330;9.104;2022-08-01T01:09:33;100828.50;;;21.96;94.62
3132;BME280;62090;52.330;9.104;2022-08-01T01:12:13;100766.91;;;21.62;94.57
3132;BME280;62090;52.330;9.104;2022-08-01T01:14:51;100836.25;;;21.99;94.99
3132;BME280;62090;52.330;9.104;2022-08-01T01:17:30;100831.91;;;21.99;94.71
3132;BME280;62090;52.330;9.104;2022-08-01T01:20:18;100822.63;;;21.84;95.43
3132;BME280;62090;52.330;9.104;2022-08-01T01:23:06;100830.22;;;21.95;94.95
3132;BME280;62090;52.330;9.104;2022-08-01T01:25:45;100822.63;;;21.86;95.67
3132;BME280;62090;52.330;9.104;2022-08-01T01:28:29;100821.13;;;21.74;95.25
3132;BME280;62090;52.330;9.104;2022-08-01T01:31:05;100807.38;;;21.69;95.34
3132;BME280;62090;52.330;9.104;2022-08-01T01:33:37;100833.34;;;21.69;94.80
3132;BME280;62090;52.330;9.104;2022-08-01T01:36:14;100835.28;;;21.58;96.02
3132;BME280;62090;52.330;9.104;2022-08-01T01:38:46;100772.09;;;21.18;96.06
3132;BME280;62090;52.330;9.104;2022-08-01T01:41:18;100837.97;;;21.54;97.08
3132;BME280;62090;52.330;9.104;2022-08-01T01:43:49;100839.66;;;21.56;97.40
3132;BME280;62090;52.330;9.104;2022-08-01T01:46:24;100829.31;;;21.55;97.42
3132;BME280;62090;52.330;9.104;2022-08-01T01:48:55;100785.66;;;21.32;96.69
3132;BME280;62090;52.330;9.104;2022-08-01T01:51:27;100812.13;;;21.49;96.86
3132;BME280;62090;52.330;9.104;2022-08-01T01:53:59;100832.66;;;21.60;96.63
3132;BME280;62090;52.330;9.104;2022-08-01T01:56:30;100820.00;;;21.43;97.08
3132;BME280;62090;52.330;9.104;2022-08-01T01:59:02;100840.38;;;21.63;96.80
3132;BME280;62090;52.330;9.104;2022-08-01T02:01:36;100827.56;;;21.57;96.84
3132;BME280;62090;52.330;9.104;2022-08-01T02:04:26;100845.56;;;21.63;96.69
3132;BME280;62090;52.330;9.104;2022-08-01T02:06:57;100838.69;;;21.62;96.85
3132;BME280;62090;52.330;9.104;2022-08-01T02:09:28;100807.81;;;21.48;95.65
3132;BME280;62090;52.330;9.104;2022-08-01T02:12:00;100838.53;;;21.69;96.14
3132;BME280;62090;52.330;9.104;2022-08-01T02:14:37;100836.91;;;21.64;95.62
3132;BME280;62090;52.330;9.104;2022-08-01T02:17:11;100778.81;;;21.29;96.12
3132;BME280;62090;52.330;9.104;2022-08-01T02:19:41;100849.16;;;21.57;96.72
3132;BME280;62090;52.330;9.104;2022-08-01T02:22:15;100837.41;;;21.38;96.92
3132;BME280;62090;52.330;9.104;2022-08-01T02:24:50;100844.09;;;21.49;97.11
3132;BME280;62090;52.330;9.104;2022-08-01T02:27:28;100852.72;;;21.50;96.86
3132;BME280;62090;52.330;9.104;2022-08-01T02:30:03;100854.56;;;21.45;97.12
3132;BME280;62090;52.330;9.104;2022-08-01T02:32:41;100847.59;;;21.47;97.27
3132;BME280;62090;52.330;9.104;2022-08-01T02:35:13;100866.56;;;21.49;96.77
3132;BME280;62090;52.330;9.104;2022-08-01T02:37:48;100844.41;;;21.33;97.63
3132;BME280;62090;52.330;9.104;2022-08-01T02:40:19;100853.81;;;21.37;97.49
3132;BME280;62090;52.330;9.104;2022-08-01T02:42:51;100846.91;;;21.37;96.28
3132;BME280;62090;52.330;9.104;2022-08-01T02:45:25;100864.00;;;21.49;97.30
3132;BME280;62090;52.330;9.104;2022-08-01T02:48:01;100862.31;;;21.46;95.92
3132;BME280;62090;52.330;9.104;2022-08-01T02:50:35;100835.00;;;21.27;97.48
3132;BME280;62090;52.330;9.104;2022-08-01T02:53:06;100803.38;;;21.05;97.17
3132;BME280;62090;52.330;9.104;2022-08-01T02:55:38;100843.53;;;21.32;97.25
3132;BME280;62090;52.330;9.104;2022-08-01T02:58:10;100808.47;;;21.15;97.25
3132;BME280;62090;52.330;9.104;2022-08-01T03:00:44;100870.00;;;21.51;95.94
3132;BME280;62090;52.330;9.104;2022-08-01T03:03:17;100875.13;;;21.54;96.43
3132;BME280;62090;52.330;9.104;2022-08-01T03:05:47;100868.31;;;21.48;96.01
3132;BME280;62090;52.330;9.104;2022-08-01T03:08:18;100874.28;;;21.54;95.59
3132;BME280;62090;52.330;9.104;2022-08-01T03:10:50;100872.59;;;21.51;96.01
3132;BME280;62090;52.330;9.104;2022-08-01T03:13:21;100871.88;;;21.43;95.95
3132;BME280;62090;52.330;9.104;2022-08-01T03:15:54;100849.69;;;21.27;95.64
3132;BME280;62090;52.330;9.104;2022-08-01T03:18:28;100879.53;;;21.49;95.58
3132;BME280;62090;52.330;9.104;2022-08-01T03:20:59;100868.56;;;21.35;95.61
3132;BME280;62090;52.330;9.104;2022-08-01T03:23:29;100879.72;;;21.40;95.36
3132;BME280;62090;52.330;9.104;2022-08-01T03:26:05;100882.44;;;21.32;95.81
3132;BME280;62090;52.330;9.104;2022-08-01T03:28:37;100884.22;;;21.29;95.80
3132;BME280;62090;52.330;9.104;2022-08-01T03:31:08;100868.06;;;21.15;95.58
3132;BME280;62090;52.330;9.104;2022-08-01T03:33:41;100867.22;;;21.11;96.39
3132;BME280;62090;52.330;9.104;2022-08-01T03:36:12;100837.25;;;20.96;96.61
3132;BME280;62090;52.330;9.104;2022-08-01T03:38:43;100883.44;;;21.25;95.99
3132;BME280;62090;52.330;9.104;2022-08-01T03:41:19;100887.63;;;21.31;95.79
3132;BME280;62090;52.330;9.104;2022-08-01T03:43:54;100862.06;;;21.10;95.70
3132;BME280;62090;52.330;9.104;2022-08-01T03:46:30;100883.53;;;21.19;96.20
3132;BME280;62090;52.330;9.104;2022-08-01T03:49:07;100891.22;;;21.24;95.78
3132;BME280;62090;52.330;9.104;2022-08-01T03:51:40;100839.91;;;20.93;95.08
3132;BME280;62090;52.330;9.104;2022-08-01T03:54:12;100899.88;;;21.23;95.59
3132;BME280;62090;52.330;9.104;2022-08-01T03:56:43;100873.34;;;21.07;95.95
3132;BME280;62090;52.330;9.104;2022-08-01T03:59:16;100875.06;;;21.08;96.37
3132;BME280;62090;52.330;9.104;2022-08-01T04:01:46;100911.13;;;21.23;96.25
3132;BME280;62090;52.330;9.104;2022-08-01T04:04:19;100902.72;;;21.06;95.93
3132;BME280;62090;52.330;9.104;2022-08-01T04:06:49;100889.94;;;20.95;96.86
3132;BME280;62090;52.330;9.104;2022-08-01T04:09:21;100904.38;;;21.10;96.27
3132;BME280;62090;52.330;9.104;2022-08-01T04:11:51;100895.81;;;21.06;94.76
3132;BME280;62090;52.330;9.104;2022-08-01T04:14:20;100912.13;;;21.15;94.30
3132;BME280;62090;52.330;9.104;2022-08-01T04:16:50;100913.06;;;21.09;95.53
3132;BME280;62090;52.330;9.104;2022-08-01T04:19:22;100862.47;;;20.85;95.13
3132;BME280;62090;52.330;9.104;2022-08-01T04:21:52;100908.59;;;21.19;94.66
3132;BME280;62090;52.330;9.104;2022-08-01T04:24:24;100916.41;;;21.16;94.29
3132;BME280;62090;52.330;9.104;2022-08-01T04:26:58;100912.88;;;21.21;94.28
3132;BME280;62090;52.330;9.104;2022-08-01T04:29:30;100924.97;;;21.21;94.98
3132;BME280;62090;52.330;9.104;2022-08-01T04:32:01;100918.81;;;21.26;95.17
3132;BME280;62090;52.330;9.104;2022-08-01T04:34:34;100921.53;;;21.20;94.40
3132;BME280;62090;52.330;9.104;2022-08-01T04:37:07;100925.91;;;21.17;94.50
3132;BME280;62090;52.330;9.104;2022-08-01T04:39:40;100925.91;;;21.17;94.99
3132;BME280;62090;52.330;9.104;2022-08-01T04:42:17;100937.81;;;21.28;94.14
3132;BME280;62090;52.330;9.104;2022-08-01T04:44:56;100939.72;;;21.17;93.71
3132;BME280;62090;52.330;9.104;2022-08-01T04:47:26;100937.94;;;21.21;94.11
3132;BME280;62090;52.330;9.104;2022-08-01T04:49:59;100936.31;;;21.14;94.00
3132;BME280;62090;52.330;9.104;2022-08-01T04:52:32;100913.22;;;20.98;93.84
3132;BME280;62090;52.330;9.104;2022-08-01T04:55:03;100940.63;;;21.12;94.31
3132;BME280;62090;52.330;9.104;2022-08-01T04:57:36;100954.47;;;21.11;93.88
3132;BME280;62090;52.330;9.104;2022-08-01T05:00:07;100920.25;;;20.89;95.19
3132;BME280;62090;52.330;9.104;2022-08-01T05:02:38;100940.78;;;21.02;94.47
3132;BME280;62090;52.330;9.104;2022-08-01T05:05:10;100966.56;;;21.12;95.08
3132;BME280;62090;52.330;9.104;2022-08-01T05:07:41;100957.13;;;21.07;94.86
3132;BME280;62090;52.330;9.104;2022-08-01T05:10:11;100955.28;;;21.17;94.03
3132;BME280;62090;52.330;9.104;2022-08-01T05:12:41;100915.91;;;20.92;95.46
3132;BME280;62090;52.330;9.104;2022-08-01T05:15:10;100958.72;;;21.18;95.36
3132;BME280;62090;52.330;9.104;2022-08-01T05:17:41;100898.69;;;20.88;94.50
3132;BME280;62090;52.330;9.104;2022-08-01T05:20:14;100966.25;;;21.33;94.14
3132;BME280;62090;52.330;9.104;2022-08-01T05:22:43;100967.19;;;21.29;94.59
3132;BME280;62090;52.330;9.104;2022-08-01T05:25:15;100956.84;;;21.26;94.27
3132;BME280;62090;52.330;9.104;2022-08-01T05:27:54;100943.00;;;21.27;94.39
3132;BME280;62090;52.330;9.104;2022-08-01T05:30:23;100955.88;;;21.34;94.24
3132;BME280;62090;52.330;9.104;2022-08-01T05:32:53;100962.47;;;21.52;93.44
3132;BME280;62090;52.330;9.104;2022-08-01T05:35:25;100955.41;;;21.60;93.09
3132;BME280;62090;52.330;9.104;2022-08-01T05:38:14;100952.91;;;21.57;93.33
3132;BME280;62090;52.330;9.104;2022-08-01T05:40:45;100959.44;;;21.78;93.04
3132;BME280;62090;52.330;9.104;2022-08-01T05:43:16;100951.69;;;21.75;92.19
3132;BME280;62090;52.330;9.104;2022-08-01T05:45:47;100961.00;;;21.86;92.03
3132;BME280;62090;52.330;9.104;2022-08-01T05:48:18;100956.78;;;21.81;92.00
3132;BME280;62090;52.330;9.104;2022-08-01T05:50:50;100957.53;;;21.86;91.59
3132;BME280;62090;52.330;9.104;2022-08-01T05:53:24;100947.25;;;21.81;91.56
3132;BME280;62090;52.330;9.104;2022-08-01T05:55:55;100948.47;;;21.62;91.51
3132;BME280;62090;52.330;9.104;2022-08-01T05:58:26;100964.81;;;21.67;91.48
3132;BME280;62090;52.330;9.104;2022-08-01T06:00:56;100981.00;;;21.80;91.40
3132;BME280;62090;52.330;9.104;2022-08-01T06:03:26;100972.63;;;21.66;92.10
3132;BME280;62090;52.330;9.104;2022-08-01T06:06:01;100989.81;;;21.71;92.11
3132;BME280;62090;52.330;9.104;2022-08-01T06:08:31;100989.16;;;21.59;93.04
3132;BME280;62090;52.330;9.104;2022-08-01T06:11:02;101001.00;;;21.73;92.17
3132;BME280;62090;52.330;9.104;2022-08-01T06:13:35;100988.28;;;21.60;92.49
3132;BME280;62090;52.330;9.104;2022-08-01T06:16:14;101004.91;;;21.48;92.20
3132;BME280;62090;52.330;9.104;2022-08-01T06:18:45;101016.47;;;21.27;91.25
3132;BME280;62090;52.330;9.104;2022-08-01T06:21:25;101015.94;;;21.02;90.82
3132;BME280;62090;52.330;9.104;2022-08-01T06:23:55;101009.25;;;20.85;91.38
3132;BME280;62090;52.330;9.104;2022-08-01T06:26:25;101010.41;;;20.65;93.10
3132;BME280;62090;52.330;9.104;2022-08-01T06:28:56;101009.69;;;20.53;93.59
3132;BME280;62090;52.330;9.104;2022-08-01T06:31:27;101000.38;;;20.38;94.89
3132;BME280;62090;52.330;9.104;2022-08-01T06:34:01;101002.16;;;20.35;94.58
3132;BME280;62090;52.330;9.104;2022-08-01T06:36:35;101009.72;;;20.50;95.39
3132;BME280;62090;52.330;9.104;2022-08-01T06:39:05;101016.38;;;20.67;95.55
3132;BME280;62090;52.330;9.104;2022-08-01T06:41:34;100969.91;;;20.57;95.21
3132;BME280;62090;52.330;9.104;2022-08-01T06:44:04;101025.53;;;20.96;95.58
3132;BME280;62090;52.330;9.104;2022-08-01T06:46:35;101016.81;;;21.00;93.48
3132;BME280;62090;52.330;9.104;2022-08-01T06:49:05;100969.09;;;20.55;92.70
3132;BME280;62090;52.330;9.104;2022-08-01T06:51:37;101019.63;;;20.86;93.63
3132;BME280;62090;52.330;9.104;2022-08-01T06:54:08;101006.75;;;20.79;94.68
3132;BME280;62090;52.330;9.104;2022-08-01T06:56:38;101030.63;;;21.02;94.92
3132;BME280;62090;52.330;9.104;2022-08-01T06:59:07;101012.59;;;20.94;93.12
3132;BME280;62090;52.330;9.104;2022-08-01T07:01:37;101027.94;;;21.10;94.28
3132;BME280;62090;52.330;9.104;2022-08-01T07:04:07;101025.38;;;21.08;94.30
3132;BME280;62090;52.330;9.104;2022-08-01T07:06:40;101037.19;;;21.27;93.84
3132;BME280;62090;52.330;9.104;2022-08-01T07:09:11;101039.78;;;21.29;93.39
3132;BME280;62090;52.330;9.104;2022-08-01T07:11:41;101037.06;;;21.36;93.97
3132;BME280;62090;52.330;9.104;2022-08-01T07:14:11;100988.09;;;21.20;94.06
3132;BME280;62090;52.330;9.104;2022-08-01T07:16:41;101040.16;;;21.60;92.98
3132;BME280;62090;52.330;9.104;2022-08-01T07:19:11;101022.34;;;21.37;92.75
3132;BME280;62090;52.330;9.104;2022-08-01T07:21:43;100994.84;;;21.28;93.26
3132;BME280;62090;52.330;9.104;2022-08-01T07:24:17;101036.72;;;21.58;92.58
3132;BME280;62090;52.330;9.104;2022-08-01T07:26:48;101042.66;;;21.67;92.24
3132;BME280;62090;52.330;9.104;2022-08-01T07:29:22;101043.50;;;21.68;91.67
3132;BME280;62090;52.330;9.104;2022-08-01T07:31:55;100992.19;;;21.31;91.02
3132;BME280;62090;52.330;9.104;2022-08-01T07:34:26;101039.13;;;21.70;91.52
3132;BME280;62090;52.330;9.104;2022-08-01T07:36:58;101024.59;;;21.60;90.26
3132;BME280;62090;52.330;9.104;2022-08-01T07:39:28;101033.03;;;21.72;90.56
3132;BME280;62090;52.330;9.104;2022-08-01T07:41:59;101035.13;;;22.03;89.46
3132;BME280;62090;52.330;9.104;2022-08-01T07:44:33;101010.91;;;22.04;87.95
3132;BME280;62090;52.330;9.104;2022-08-01T07:47:04;101041.56;;;22.28;87.65
3132;BME280;62090;52.330;9.104;2022-08-01T07:49:36;101046.53;;;22.42;87.06
3132;BME280;62090;52.330;9.104;2022-08-01T07:52:10;101040.47;;;22.41;86.11
3132;BME280;62090;52.330;9.104;2022-08-01T07:54:41;101041.13;;;22.52;86.65
3132;BME280;62090;52.330;9.104;2022-08-01T07:57:18;101043.06;;;22.41;85.27
3132;BME280;62090;52.330;9.104;2022-08-01T07:59:49;101053.69;;;22.29;84.27
3132;BME280;62090;52.330;9.104;2022-08-01T08:02:20;101068.81;;;22.06;84.97
3132;BME280;62090;52.330;9.104;2022-08-01T08:04:49;101034.69;;;21.78;86.76
3132;BME280;62090;52.330;9.104;2022-08-01T08:07:23;101068.44;;;21.76;84.58
3132;BME280;62090;52.330;9.104;2022-08-01T08:09:54;101078.28;;;21.53;85.80
3132;BME280;62090;52.330;9.104;2022-08-01T08:12:25;101075.75;;;21.50;86.21
3132;BME280;62090;52.330;9.104;2022-08-01T08:14:55;101075.59;;;21.62;86.48
3132;BME280;62090;52.330;9.104;2022-08-01T08:17:28;101027.50;;;21.40;85.92
3132;BME280;62090;52.330;9.104;2022-08-01T08:20:04;101074.56;;;21.71;85.12
3132;BME280;62090;52.330;9.104;2022-08-01T08:22:39;101077.03;;;21.78;85.32
3132;BME280;62090;52.330;9.104;2022-08-01T08:25:10;101080.84;;;21.56;84.80
3132;BME280;62090;52.330;9.104;2022-08-01T08:27:42;101086.16;;;21.47;84.98
3132;BME280;62090;52.330;9.104;2022-08-01T08:30:15;101089.97;;;21.25;85.60
3132;BME280;62090;52.330;9.104;2022-08-01T08:32:48;101086.47;;;21.26;86.54
3132;BME280;62090;52.330;9.104;2022-08-01T08:35:19;101081.25;;;21.30;86.08
3132;BME280;62090;52.330;9.104;2022-08-01T08:38:13;101089.69;;;21.43;85.46
3132;BME280;62090;52.330;9.104;2022-08-01T08:40:44;101096.38;;;21.59;85.67
3132;BME280;62090;52.330;9.104;2022-08-01T08:43:16;101102.00;;;21.85;85.53
3132;BME280;62090;52.330;9.104;2022-08-01T08:45:47;101084.47;;;22.00;83.25
3132;BME280;62090;52.330;9.104;2022-08-01T08:48:27;101105.81;;;22.17;81.31
3132;BME280;62090;52.330;9.104;2022-08-01T08:50:59;101093.09;;;22.03;82.65
3132;BME280;62090;52.330;9.104;2022-08-01T08:53:35;101097.31;;;22.09;82.22
3132;BME280;62090;52.330;9.104;2022-08-01T08:56:06;101107.09;;;21.91;81.96
3132;BME280;62090;52.330;9.104;2022-08-01T08:58:38;101107.28;;;21.79;82.27
3132;BME280;62090;52.330;9.104;2022-08-01T09:01:09;101123.75;;;21.77;82.48
3132;BME280;62090;52.330;9.104;2022-08-01T09:03:39;101124.81;;;21.65;83.52
3132;BME280;62090;52.330;9.104;2022-08-01T09:06:11;101108.69;;;21.45;82.16
3132;BME280;62090;52.330;9.104;2022-08-01T09:08:44;101095.81;;;21.37;82.66
3132;BME280;62090;52.330;9.104;2022-08-01T09:11:15;101128.56;;;21.44;81.92
3132;BME280;62090;52.330;9.104;2022-08-01T09:14:07;101126.06;;;21.37;81.54
3132;BME280;62090;52.330;9.104;2022-08-01T09:16:41;101126.84;;;21.43;79.84
3132;BME280;62090;52.330;9.104;2022-08-01T09:19:17;101136.13;;;21.58;79.26
3132;BME280;62090;52.330;9.104;2022-08-01T09:22:08;101147.06;;;21.80;79.48
3132;BME280;62090;52.330;9.104;2022-08-01T09:24:57;101137.91;;;22.13;78.34
3132;BME280;62090;52.330;9.104;2022-08-01T09:27:31;101124.88;;;22.16;76.24
3132;BME280;62090;52.330;9.104;2022-08-01T09:30:08;101124.81;;;22.20;75.48
3132;BME280;62090;52.330;9.104;2022-08-01T09:32:53;101143.00;;;22.19;74.03
3132;BME280;62090;52.330;9.104;2022-08-01T09:35:26;101151.66;;;22.19;74.89
3132;BME280;62090;52.330;9.104;2022-08-01T09:38:14;101099.25;;;21.98;74.86
3132;BME280;62090;52.330;9.104;2022-08-01T09:40:53;101141.88;;;22.33;74.93
3132;BME280;62090;52.330;9.104;2022-08-01T09:43:26;101167.69;;;22.43;75.60
3132;BME280;62090;52.330;9.104;2022-08-01T09:45:59;101157.63;;;22.26;74.97
3132;BME280;62090;52.330;9.104;2022-08-01T09:48:31;101156.63;;;22.31;75.70
3132;BME280;62090;52.330;9.104;2022-08-01T09:51:02;101162.38;;;22.50;75.49
3132;BME280;62090;52.330;9.104;2022-08-01T09:53:40;101163.13;;;22.55;73.33
3132;BME280;62090;52.330;9.104;2022-08-01T09:56:22;101168.53;;;22.45;73.85
3132;BME280;62090;52.330;9.104;2022-08-01T09:58:55;101146.97;;;22.41;73.79
3132;BME280;62090;52.330;9.104;2022-08-01T10:01:42;101169.19;;;22.57;75.15
3132;BME280;62090;52.330;9.104;2022-08-01T10:04:16;101173.88;;;22.85;73.94
3132;BME280;62090;52.330;9.104;2022-08-01T10:06:48;101012.63;;;22.05;72.59
3132;BME280;62090;52.330;9.104;2022-08-01T10:09:27;101176.53;;;22.83;70.61
3132;BME280;62090;52.330;9.104;2022-08-01T10:12:12;101176.56;;;22.80;70.69
3132;BME280;62090;52.330;9.104;2022-08-01T10:14:46;101150.03;;;22.61;71.45
3132;BME280;62090;52.330;9.104;2022-08-01T10:17:19;101164.31;;;22.85;72.36
3132;BME280;62090;52.330;9.104;2022-08-01T10:20:10;101168.44;;;22.97;72.06
3132;BME280;62090;52.330;9.104;2022-08-01T10:22:59;101171.75;;;23.05;71.00
3132;BME280;62090;52.330;9.104;2022-08-01T10:25:41;101173.00;;;22.86;72.97
3132;BME280;62090;52.330;9.104;2022-08-01T10:28:17;101151.28;;;22.41;73.91
3132;BME280;62090;52.330;9.104;2022-08-01T10:30:50;101184.22;;;22.37;73.97
3132;BME280;62090;52.330;9.104;2022-08-01T10:33:22;101189.47;;;22.36;74.75
3132;BME280;62090;52.330;9.104;2022-08-01T10:36:13;101169.06;;;22.13;75.06
3132;BME280;62090;52.330;9.104;2022-08-01T10:38:45;101191.31;;;22.29;74.08
3132;BME280;62090;52.330;9.104;2022-08-01T10:41:15;101191.13;;;22.38;73.68
3132;BME280;62090;52.330;9.104;2022-08-01T10:43:51;101167.00;;;22.31;73.19
3132;BME280;62090;52.330;9.104;2022-08-01T10:46:21;101185.69;;;22.53;72.77
3132;BME280;62090;52.330;9.104;2022-08-01T10:48:58;101170.88;;;22.58;72.00
3132;BME280;62090;52.330;9.104;2022-08-01T10:51:34;101176.22;;;22.49;73.04
3132;BME280;62090;52.330;9.104;2022-08-01T10:54:24;101136.16;;;22.15;73.50
3132;BME280;62090;52.330;9.104;2022-08-01T10:56:54;101177.88;;;22.03;72.89
3132;BME280;62090;52.330;9.104;2022-08-01T10:59:33;101182.50;;;21.82;74.27
3132;BME280;62090;52.330;9.104;2022-08-01T11:02:27;101193.59;;;21.90;73.73
3132;BME280;62090;52.330;9.104;2022-08-01T11:05:02;101189.94;;;22.05;74.47
3132;BME280;62090;52.330;9.104;2022-08-01T11:07:42;101170.81;;;22.11;74.37
3132;BME280;62090;52.330;9.104;2022-08-01T11:10:21;101169.06;;;22.14;73.09
3132;BME280;62090;52.330;9.104;2022-08-01T11:12:54;101173.47;;;22.08;72.93
3132;BME280;62090;52.330;9.104;2022-08-01T11:15:29;101179.59;;;22.04;72.08
3132;BME280;62090;52.330;9.104;2022-08-01T11:18:02;101192.19;;;22.28;72.72
3132;BME280;62090;52.330;9.104;2022-08-01T11:20:35;101175.63;;;22.35;70.80
3132;BME280;62090;52.330;9.104;2022-08-01T11:23:18;101192.41;;;22.63;70.56
3132;BME280;62090;52.330;9.104;2022-08-01T11:26:09;101179.25;;;22.76;69.25
3132;BME280;62090;52.330;9.104;2022-08-01T11:28:45;101188.19;;;23.05;69.54
3132;BME280;62090;52.330;9.104;2022-08-01T11:31:39;101173.59;;;23.00;67.81
3132;BME280;62090;52.330;9.104;2022-08-01T11:34:10;101185.97;;;23.30;67.25
3132;BME280;62090;52.330;9.104;2022-08-01T11:36:42;101193.97;;;23.21;65.91
3132;BME280;62090;52.330;9.104;2022-08-01T11:39:29;101185.63;;;23.04;66.12
3132;BME280;62090;52.330;9.104;2022-08-01T11:42:18;101178.06;;;22.92;65.15
3132;BME280;62090;52.330;9.104;2022-08-01T11:44:54;101182.94;;;23.08;64.80
3132;BME280;62090;52.330;9.104;2022-08-01T11:47:46;101187.72;;;23.30;64.72
3132;BME280;62090;52.330;9.104;2022-08-01T11:50:35;101157.34;;;23.30;63.24
3132;BME280;62090;52.330;9.104;2022-08-01T11:53:07;101183.78;;;23.52;64.07
3132;BME280;62090;52.330;9.104;2022-08-01T11:55:43;101146.00;;;23.33;62.26
3132;BME280;62090;52.330;9.104;2022-08-01T11:58:21;101140.56;;;23.45;63.04
3132;BME280;62090;52.330;9.104;2022-08-01T12:00:58;101178.97;;;23.74;62.82
3132;BME280;62090;52.330;9.104;2022-08-01T12:03:32;101188.00;;;23.58;64.03
3132;BME280;62090;52.330;9.104;2022-08-01T12:06:03;101152.50;;;23.53;64.72
3132;BME280;62090;52.330;9.104;2022-08-01T12:08:34;101180.31;;;23.90;64.37
3132;BME280;62090;52.330;9.104;2022-08-01T12:11:05;101189.03;;;23.89;62.88
3132;BME280;62090;52.330;9.104;2022-08-01T12:13:40;101191.78;;;23.81;63.01
3132;BME280;62090;52.330;9.104;2022-08-01T12:16:11;101160.19;;;23.60;63.33
3132;BME280;62090;52.330;9.104;2022-08-01T12:18:45;101191.69;;;23.86;63.68
3132;BME280;62090;52.330;9.104;2022-08-01T12:21:15;101192.19;;;24.02;63.53
3132;BME280;62090;52.330;9.104;2022-08-01T12:23:59;101195.47;;;24.10;61.37
3132;BME280;62090;52.330;9.104;2022-08-01T12:26:39;101179.63;;;24.20;63.02
3132;BME280;62090;52.330;9.104;2022-08-01T12:29:09;101193.22;;;24.31;61.73
3132;BME280;62090;52.330;9.104;2022-08-01T12:31:40;101193.25;;;24.30;61.10
3132;BME280;62090;52.330;9.104;2022-08-01T12:34:27;101186.16;;;24.36;61.00
3132;BME280;62090;52.330;9.104;2022-08-01T12:37:02;101187.28;;;24.26;61.17
3132;BME280;62090;52.330;9.104;2022-08-01T12:39:33;101199.19;;;24.36;61.94
3132;BME280;62090;52.330;9.104;2022-08-01T12:42:07;101202.44;;;24.09;59.84
3132;BME280;62090;52.330;9.104;2022-08-01T12:44:38;101197.38;;;24.02;60.74
3132;BME280;62090;52.330;9.104;2022-08-01T12:47:08;101197.94;;;24.16;60.14
3132;BME280;62090;52.330;9.104;2022-08-01T12:49:43;101209.53;;;24.38;60.52
3132;BME280;62090;52.330;9.104;2022-08-01T12:52:14;101204.44;;;24.33;59.34
3132;BME280;62090;52.330;9.104;2022-08-01T12:55:04;101213.28;;;24.28;60.26
3132;BME280;62090;52.330;9.104;2022-08-01T12:57:39;101211.63;;;24.25;59.21
3132;BME280;62090;52.330;9.104;2022-08-01T13:00:15;101208.63;;;24.40;59.12
3132;BME280;62090;52.330;9.104;2022-08-01T13:02:47;101213.44;;;24.56;60.50
3132;BME280;62090;52.330;9.104;2022-08-01T13:05:24;101159.56;;;24.22;58.02
3132;BME280;62090;52.330;9.104;2022-08-01T13:07:55;101204.63;;;24.60;58.44
3132;BME280;62090;52.330;9.104;2022-08-01T13:10:29;101198.34;;;24.68;58.55
3132;BME280;62090;52.330;9.104;2022-08-01T13:13:03;101207.91;;;24.68;57.62
3132;BME280;62090;52.330;9.104;2022-08-01T13:15:36;101206.56;;;24.86;58.33
3132;BME280;62090;52.330;9.104;2022-08-01T13:18:25;101202.19;;;24.86;55.59
3132;BME280;62090;52.330;9.104;2022-08-01T13:21:13;101135.13;;;24.60;56.70
3132;BME280;62090;52.330;9.104;2022-08-01T13:24:01;101193.03;;;25.35;58.39
3132;BME280;62090;52.330;9.104;2022-08-01T13:26:40;101193.28;;;25.55;57.08
3132;BME280;62090;52.330;9.104;2022-08-01T13:29:13;101195.09;;;25.53;55.76
3132;BME280;62090;52.330;9.104;2022-08-01T13:31:45;101196.78;;;25.55;56.71
3132;BME280;62090;52.330;9.104;2022-08-01T13:34:16;101201.22;;;25.52;54.67
3132;BME280;62090;52.330;9.104;2022-08-01T13:36:51;101189.56;;;25.34;54.94